Wales, AK

11:13 PM AKST on December 05, 2016 (GMT -0900)
Tin City LRRS | | Change Station

Elev 272 ft 65.56 °N, 167.92 °W | Updated 18 minutes ago

Clear
Clear
10 °F
Feels Like -6 °F
N
14
Wind Variable Wind from NNE

Today
High -- | Low -- °F
--% Chance of Precip.
Yesterday
High -- | Low -- °F
Precip. -- in
Pressure 30.46 in
Visibility 10.0 miles
Clouds Clear
Windchill -6 °F
Dew Point 3 °F
Humidity 74%
Rainfall 0.00 in
Snow Depth Not available.
12:06 PM 3:58 PM
Waxing Crescent, 39% visible
METAR PATC 060755Z AUTO 02012KT 10SM CLR M12/M16 A3043 RMK AO2 SLP313 T11241161
Pressure 30.46 in
Visibility 10.0 miles
Clouds Clear
Windchill -6 °F
Dew Point 3 °F
Humidity 74%
Rainfall 0.00 in
Snow Depth Not available.
12:06 PM 3:58 PM
Waxing Crescent, 39% visible
METAR PATC 060755Z AUTO 02012KT 10SM CLR M12/M16 A3043 RMK AO2 SLP313 T11241161

10-Day Weather Forecast

Almanac

Astronomy

Dec. 05, 2016 Rise Set
Actual Time
Civil Twilight
Nautical Twilight
Astronomical Twilight
Moon
Length of Visible Light
Length of Day
Tomorrow will be .
, % of the Moon is Illuminated

Today's Extremes

State Highs State Lows

Community

WunderPhotos

Upload Photos

1,955,935 photos uploaded!

WunderBlog® & News

Nearby

Air Quality

  Air Quality AQ Index Pollutant
Not available.

Snow Depth

Station Depth Elevation

Earthquake Activity

City Distance Mag. Time & Date
Minimum magnitude displayed is 2.5.

Coastal Water Temperatures

Place Temperature

Stations

Nearby Weather Stations

Station Location Temp. Windchill Dew Point Humidity Wind Precip. Elev Updated Type
                   

Watches & Warnings

There are currently no watches in effect.